sensor_id;sensor_type;location;lat;lon;timestamp;pressure;altitude;pressure_sealevel;temperature;humidity
31483;BME280;18103;52.246;8.052;2023-05-25T00:01:33;101323.25;;;9.97;81.92
31483;BME280;18103;52.246;8.052;2023-05-25T00:04:00;101323.53;;;9.92;82.64
31483;BME280;18103;52.246;8.052;2023-05-25T00:06:28;101327.31;;;9.88;82.69
31483;BME280;18103;52.246;8.052;2023-05-25T00:08:56;101328.22;;;9.87;82.46
31483;BME280;18103;52.246;8.052;2023-05-25T00:11:25;101328.41;;;9.84;82.12
31483;BME280;18103;52.246;8.052;2023-05-25T00:13:50;101322.28;;;9.83;81.89
31483;BME280;18103;52.246;8.052;2023-05-25T00:16:16;101319.34;;;9.73;81.98
31483;BME280;18103;52.246;8.052;2023-05-25T00:18:44;101323.78;;;9.73;82.33
31483;BME280;18103;52.246;8.052;2023-05-25T00:21:11;101330.06;;;9.70;82.20
31483;BME280;18103;52.246;8.052;2023-05-25T00:23:38;101336.38;;;9.68;82.73
31483;BME280;18103;52.246;8.052;2023-05-25T00:26:03;101331.59;;;9.74;81.87
31483;BME280;18103;52.246;8.052;2023-05-25T00:28:29;101322.16;;;9.70;82.01
31483;BME280;18103;52.246;8.052;2023-05-25T00:30:54;101331.59;;;9.74;82.06
31483;BME280;18103;52.246;8.052;2023-05-25T00:33:22;101321.41;;;9.68;82.21
31483;BME280;18103;52.246;8.052;2023-05-25T00:35:47;101333.91;;;9.65;82.23
31483;BME280;18103;52.246;8.052;2023-05-25T00:38:14;101332.31;;;9.62;82.41
31483;BME280;18103;52.246;8.052;2023-05-25T00:40:43;101337.25;;;9.68;82.28
31483;BME280;18103;52.246;8.052;2023-05-25T00:43:12;101337.66;;;9.61;82.65
31483;BME280;18103;52.246;8.052;2023-05-25T00:45:37;101334.84;;;9.64;83.40
31483;BME280;18103;52.246;8.052;2023-05-25T00:48:04;101339.09;;;9.66;82.44
31483;BME280;18103;52.246;8.052;2023-05-25T00:50:37;101332.81;;;9.69;82.85
31483;BME280;18103;52.246;8.052;2023-05-25T00:53:04;101334.59;;;9.68;82.71
31483;BME280;18103;52.246;8.052;2023-05-25T00:55:34;101325.91;;;9.66;84.32
31483;BME280;18103;52.246;8.052;2023-05-25T00:58:02;101333.81;;;9.66;83.43
31483;BME280;18103;52.246;8.052;2023-05-25T01:00:32;101332.22;;;9.64;84.05
31483;BME280;18103;52.246;8.052;2023-05-25T01:03:05;101341.03;;;9.79;83.21
31483;BME280;18103;52.246;8.052;2023-05-25T01:05:39;101327.66;;;9.82;82.98
31483;BME280;18103;52.246;8.052;2023-05-25T01:08:09;101342.94;;;9.91;82.66
31483;BME280;18103;52.246;8.052;2023-05-25T01:10:38;101342.75;;;9.94;82.91
31483;BME280;18103;52.246;8.052;2023-05-25T01:13:08;101337.19;;;9.99;83.00
31483;BME280;18103;52.246;8.052;2023-05-25T01:15:36;101340.63;;;9.85;83.34
31483;BME280;18103;52.246;8.052;2023-05-25T01:18:02;101340.38;;;9.89;84.23
31483;BME280;18103;52.246;8.052;2023-05-25T01:20:31;101338.19;;;9.82;83.59
31483;BME280;18103;52.246;8.052;2023-05-25T01:23:05;101344.63;;;9.92;83.41
31483;BME280;18103;52.246;8.052;2023-05-25T01:25:39;101342.00;;;9.92;83.46
31483;BME280;18103;52.246;8.052;2023-05-25T01:30:39;101342.56;;;9.97;83.34
31483;BME280;18103;52.246;8.052;2023-05-25T01:33:08;101337.97;;;10.01;83.69
31483;BME280;18103;52.246;8.052;2023-05-25T01:35:38;101342.06;;;9.90;83.82
31483;BME280;18103;52.246;8.052;2023-05-25T01:38:07;101344.97;;;9.86;84.36
31483;BME280;18103;52.246;8.052;2023-05-25T01:40:33;101352.56;;;9.92;83.71
31483;BME280;18103;52.246;8.052;2023-05-25T01:43:01;101349.53;;;9.98;83.45
31483;BME280;18103;52.246;8.052;2023-05-25T01:45:27;101346.66;;;10.17;82.89
31483;BME280;18103;52.246;8.052;2023-05-25T01:54:02;101332.59;;;10.02;84.09
31483;BME280;18103;52.246;8.052;2023-05-25T01:56:30;101331.66;;;10.03;83.79
31483;BME280;18103;52.246;8.052;2023-05-25T01:59:00;101331.25;;;9.95;84.37
31483;BME280;18103;52.246;8.052;2023-05-25T02:01:26;101335.94;;;9.90;83.72
31483;BME280;18103;52.246;8.052;2023-05-25T02:03:55;101335.84;;;9.91;83.52
31483;BME280;18103;52.246;8.052;2023-05-25T02:06:23;101341.31;;;9.88;84.06
31483;BME280;18103;52.246;8.052;2023-05-25T02:08:48;101347.72;;;9.84;84.60
31483;BME280;18103;52.246;8.052;2023-05-25T02:11:13;101346.00;;;9.83;84.12
31483;BME280;18103;52.246;8.052;2023-05-25T02:13:42;101348.84;;;9.80;84.41
31483;BME280;18103;52.246;8.052;2023-05-25T02:16:09;101344.88;;;9.73;84.52
31483;BME280;18103;52.246;8.052;2023-05-25T02:18:35;101345.06;;;9.84;82.96
31483;BME280;18103;52.246;8.052;2023-05-25T02:21:01;101342.66;;;9.96;82.43
31483;BME280;18103;52.246;8.052;2023-05-25T02:23:26;101347.53;;;9.87;83.43
31483;BME280;18103;52.246;8.052;2023-05-25T02:25:51;101353.38;;;9.78;83.73
31483;BME280;18103;52.246;8.052;2023-05-25T02:28:17;101347.91;;;9.81;83.59
31483;BME280;18103;52.246;8.052;2023-05-25T02:30:46;101348.31;;;9.89;83.12
31483;BME280;18103;52.246;8.052;2023-05-25T02:33:13;101344.06;;;9.87;84.09
31483;BME280;18103;52.246;8.052;2023-05-25T02:35:39;101347.00;;;9.97;83.35
31483;BME280;18103;52.246;8.052;2023-05-25T02:38:05;101341.22;;;9.90;83.18
31483;BME280;18103;52.246;8.052;2023-05-25T02:40:33;101343.28;;;9.85;84.40
31483;BME280;18103;52.246;8.052;2023-05-25T02:42:59;101355.13;;;9.77;84.37
31483;BME280;18103;52.246;8.052;2023-05-25T02:45:24;101350.66;;;9.94;84.05
31483;BME280;18103;52.246;8.052;2023-05-25T02:47:50;101356.22;;;10.04;83.43
31483;BME280;18103;52.246;8.052;2023-05-25T02:50:15;101351.03;;;10.02;83.94
31483;BME280;18103;52.246;8.052;2023-05-25T02:52:41;101361.06;;;10.12;83.38
31483;BME280;18103;52.246;8.052;2023-05-25T02:55:06;101362.28;;;10.06;83.93
31483;BME280;18103;52.246;8.052;2023-05-25T02:57:39;101361.41;;;10.05;83.62
31483;BME280;18103;52.246;8.052;2023-05-25T03:00:05;101360.78;;;10.16;83.36
31483;BME280;18103;52.246;8.052;2023-05-25T03:02:31;101364.13;;;10.04;83.59
31483;BME280;18103;52.246;8.052;2023-05-25T03:04:57;101372.34;;;10.14;83.48
31483;BME280;18103;52.246;8.052;2023-05-25T03:07:23;101373.19;;;10.14;83.01
31483;BME280;18103;52.246;8.052;2023-05-25T03:09:51;101375.47;;;10.20;82.35
31483;BME280;18103;52.246;8.052;2023-05-25T03:12:16;101373.56;;;10.22;82.83
31483;BME280;18103;52.246;8.052;2023-05-25T03:14:44;101387.44;;;10.26;83.11
31483;BME280;18103;52.246;8.052;2023-05-25T03:17:09;101379.53;;;10.26;82.40
31483;BME280;18103;52.246;8.052;2023-05-25T03:19:35;101380.00;;;10.33;82.75
31483;BME280;18103;52.246;8.052;2023-05-25T03:22:04;101374.38;;;10.39;82.37
31483;BME280;18103;52.246;8.052;2023-05-25T03:24:29;101377.81;;;10.25;83.05
31483;BME280;18103;52.246;8.052;2023-05-25T03:26:55;101385.97;;;10.36;82.81
31483;BME280;18103;52.246;8.052;2023-05-25T03:29:20;101385.00;;;10.23;82.71
31483;BME280;18103;52.246;8.052;2023-05-25T03:31:46;101383.81;;;10.43;82.47
31483;BME280;18103;52.246;8.052;2023-05-25T03:34:11;101380.34;;;10.42;82.26
31483;BME280;18103;52.246;8.052;2023-05-25T03:36:40;101378.22;;;10.33;81.89
31483;BME280;18103;52.246;8.052;2023-05-25T03:39:10;101378.72;;;10.40;81.68
31483;BME280;18103;52.246;8.052;2023-05-25T03:41:36;101382.50;;;10.36;81.38
31483;BME280;18103;52.246;8.052;2023-05-25T03:44:04;101383.69;;;10.30;81.52
31483;BME280;18103;52.246;8.052;2023-05-25T03:46:29;101379.38;;;10.43;81.55
31483;BME280;18103;52.246;8.052;2023-05-25T03:48:57;101390.13;;;10.40;81.73
31483;BME280;18103;52.246;8.052;2023-05-25T03:51:22;101386.00;;;10.51;81.36
31483;BME280;18103;52.246;8.052;2023-05-25T03:53:47;101391.06;;;10.39;81.68
31483;BME280;18103;52.246;8.052;2023-05-25T03:56:13;101384.94;;;10.39;80.95
31483;BME280;18103;52.246;8.052;2023-05-25T03:58:40;101389.94;;;10.43;80.94
31483;BME280;18103;52.246;8.052;2023-05-25T04:01:06;101388.16;;;10.44;81.15
31483;BME280;18103;52.246;8.052;2023-05-25T04:03:33;101387.97;;;10.47;80.99
31483;BME280;18103;52.246;8.052;2023-05-25T04:05:59;101392.00;;;10.53;81.39
31483;BME280;18103;52.246;8.052;2023-05-25T04:08:27;101392.28;;;10.63;80.99
31483;BME280;18103;52.246;8.052;2023-05-25T04:10:52;101387.59;;;10.68;80.51
31483;BME280;18103;52.246;8.052;2023-05-25T04:13:21;101398.81;;;10.57;80.96
31483;BME280;18103;52.246;8.052;2023-05-25T04:15:49;101402.66;;;10.66;80.95
31483;BME280;18103;52.246;8.052;2023-05-25T04:18:15;101395.97;;;10.60;81.34
31483;BME280;18103;52.246;8.052;2023-05-25T04:20:40;101401.16;;;10.61;81.23
31483;BME280;18103;52.246;8.052;2023-05-25T04:23:05;101406.06;;;10.53;81.63
31483;BME280;18103;52.246;8.052;2023-05-25T04:25:33;101410.03;;;10.75;80.72
31483;BME280;18103;52.246;8.052;2023-05-25T04:27:59;101405.78;;;10.58;81.43
31483;BME280;18103;52.246;8.052;2023-05-25T04:30:24;101405.22;;;10.67;80.86
31483;BME280;18103;52.246;8.052;2023-05-25T04:32:53;101412.38;;;10.65;81.56
31483;BME280;18103;52.246;8.052;2023-05-25T04:35:18;101417.06;;;10.74;81.07
31483;BME280;18103;52.246;8.052;2023-05-25T04:37:45;101413.03;;;10.69;81.53
31483;BME280;18103;52.246;8.052;2023-05-25T04:40:12;101412.28;;;10.81;81.15
31483;BME280;18103;52.246;8.052;2023-05-25T04:42:38;101408.78;;;10.81;80.73
31483;BME280;18103;52.246;8.052;2023-05-25T04:45:07;101407.00;;;10.81;80.95
31483;BME280;18103;52.246;8.052;2023-05-25T04:47:36;101412.66;;;10.89;80.65
31483;BME280;18103;52.246;8.052;2023-05-25T04:50:06;101410.59;;;10.80;80.81
31483;BME280;18103;52.246;8.052;2023-05-25T04:52:32;101413.13;;;10.82;81.16
31483;BME280;18103;52.246;8.052;2023-05-25T04:55:00;101412.66;;;10.75;80.92
31483;BME280;18103;52.246;8.052;2023-05-25T04:57:27;101419.34;;;10.81;81.17
31483;BME280;18103;52.246;8.052;2023-05-25T04:59:56;101421.50;;;10.88;81.27
31483;BME280;18103;52.246;8.052;2023-05-25T05:02:24;101423.59;;;10.98;80.85
31483;BME280;18103;52.246;8.052;2023-05-25T05:04:50;101417.38;;;10.99;80.33
31483;BME280;18103;52.246;8.052;2023-05-25T05:07:19;101416.31;;;11.01;80.39
31483;BME280;18103;52.246;8.052;2023-05-25T05:09:45;101420.75;;;11.01;80.54
31483;BME280;18103;52.246;8.052;2023-05-25T05:12:13;101418.97;;;11.01;80.30
31483;BME280;18103;52.246;8.052;2023-05-25T05:14:38;101434.41;;;11.07;80.69
31483;BME280;18103;52.246;8.052;2023-05-25T05:17:04;101426.28;;;11.10;80.24
31483;BME280;18103;52.246;8.052;2023-05-25T05:19:29;101435.34;;;11.06;80.37
31483;BME280;18103;52.246;8.052;2023-05-25T05:21:57;101431.31;;;11.01;79.75
31483;BME280;18103;52.246;8.052;2023-05-25T05:24:22;101447.06;;;11.17;79.64
31483;BME280;18103;52.246;8.052;2023-05-25T05:26:48;101441.47;;;11.21;79.32
31483;BME280;18103;52.246;8.052;2023-05-25T05:29:16;101441.94;;;11.28;79.67
31483;BME280;18103;52.246;8.052;2023-05-25T05:31:44;101440.50;;;11.37;79.03
31483;BME280;18103;52.246;8.052;2023-05-25T05:34:09;101447.75;;;11.33;79.72
31483;BME280;18103;52.246;8.052;2023-05-25T05:36:35;101456.25;;;11.38;79.83
31483;BME280;18103;52.246;8.052;2023-05-25T05:39:01;101454.81;;;11.47;79.37
31483;BME280;18103;52.246;8.052;2023-05-25T05:41:27;101464.84;;;11.42;79.46
31483;BME280;18103;52.246;8.052;2023-05-25T05:43:53;101459.94;;;11.36;79.65
31483;BME280;18103;52.246;8.052;2023-05-25T05:46:21;101453.91;;;11.34;79.19
31483;BME280;18103;52.246;8.052;2023-05-25T05:48:46;101461.34;;;11.41;79.59
31483;BME280;18103;52.246;8.052;2023-05-25T05:51:14;101457.56;;;11.45;79.83
31483;BME280;18103;52.246;8.052;2023-05-25T05:53:42;101463.19;;;11.26;80.49
31483;BME280;18103;52.246;8.052;2023-05-25T05:56:16;101461.84;;;11.34;80.38
31483;BME280;18103;52.246;8.052;2023-05-25T05:58:41;101480.97;;;11.37;80.37
31483;BME280;18103;52.246;8.052;2023-05-25T06:01:06;101479.81;;;11.56;79.56
31483;BME280;18103;52.246;8.052;2023-05-25T06:03:33;101482.56;;;11.54;80.11
31483;BME280;18103;52.246;8.052;2023-05-25T06:06:00;101484.31;;;11.68;79.42
31483;BME280;18103;52.246;8.052;2023-05-25T06:08:26;101484.34;;;11.54;80.24
31483;BME280;18103;52.246;8.052;2023-05-25T06:10:54;101488.91;;;11.52;80.84
31483;BME280;18103;52.246;8.052;2023-05-25T06:13:20;101486.31;;;11.64;80.13
31483;BME280;18103;52.246;8.052;2023-05-25T06:15:46;101490.81;;;11.77;79.98
31483;BME280;18103;52.246;8.052;2023-05-25T06:18:11;101498.66;;;11.78;80.51
31483;BME280;18103;52.246;8.052;2023-05-25T06:20:39;101495.03;;;11.94;79.55
31483;BME280;18103;52.246;8.052;2023-05-25T06:23:04;101492.94;;;11.85;80.12
31483;BME280;18103;52.246;8.052;2023-05-25T06:25:29;101500.09;;;11.97;79.95
31483;BME280;18103;52.246;8.052;2023-05-25T06:27:55;101493.00;;;11.97;79.98
31483;BME280;18103;52.246;8.052;2023-05-25T06:30:21;101493.22;;;11.94;80.36
31483;BME280;18103;52.246;8.052;2023-05-25T06:32:46;101500.25;;;12.08;79.49
31483;BME280;18103;52.246;8.052;2023-05-25T06:35:12;101500.88;;;11.99;80.32
31483;BME280;18103;52.246;8.052;2023-05-25T06:37:46;101497.84;;;11.91;80.37
31483;BME280;18103;52.246;8.052;2023-05-25T06:40:15;101497.69;;;12.07;79.64
31483;BME280;18103;52.246;8.052;2023-05-25T06:42:43;101499.72;;;12.03;78.93
31483;BME280;18103;52.246;8.052;2023-05-25T06:45:12;101499.91;;;12.00;79.66
31483;BME280;18103;52.246;8.052;2023-05-25T06:47:37;101497.69;;;12.07;79.61
31483;BME280;18103;52.246;8.052;2023-05-25T06:50:03;101509.72;;;12.25;78.57
31483;BME280;18103;52.246;8.052;2023-05-25T06:52:31;101503.91;;;12.20;79.18
31483;BME280;18103;52.246;8.052;2023-05-25T06:54:59;101500.00;;;12.39;79.04
31483;BME280;18103;52.246;8.052;2023-05-25T06:57:25;101507.72;;;12.42;78.43
31483;BME280;18103;52.246;8.052;2023-05-25T06:59:50;101505.78;;;12.31;78.75
31483;BME280;18103;52.246;8.052;2023-05-25T07:02:16;101511.84;;;12.33;78.20
31483;BME280;18103;52.246;8.052;2023-05-25T07:04:42;101519.25;;;12.28;79.30
31483;BME280;18103;52.246;8.052;2023-05-25T07:07:08;101515.56;;;12.30;78.99
31483;BME280;18103;52.246;8.052;2023-05-25T07:09:34;101509.09;;;12.35;78.88
31483;BME280;18103;52.246;8.052;2023-05-25T07:12:02;101512.47;;;12.37;78.81
31483;BME280;18103;52.246;8.052;2023-05-25T07:14:27;101513.91;;;12.42;78.57
31483;BME280;18103;52.246;8.052;2023-05-25T07:16:52;101515.06;;;12.51;78.38
31483;BME280;18103;52.246;8.052;2023-05-25T07:19:18;101520.13;;;12.41;78.99
31483;BME280;18103;52.246;8.052;2023-05-25T07:21:43;101514.31;;;12.49;78.01
31483;BME280;18103;52.246;8.052;2023-05-25T07:24:11;101523.13;;;12.49;78.22
31483;BME280;18103;52.246;8.052;2023-05-25T07:26:38;101530.94;;;12.51;78.30
31483;BME280;18103;52.246;8.052;2023-05-25T07:29:06;101527.03;;;12.57;78.52
31483;BME280;18103;52.246;8.052;2023-05-25T07:31:34;101531.50;;;12.69;77.81
31483;BME280;18103;52.246;8.052;2023-05-25T07:34:00;101535.19;;;12.54;78.12
31483;BME280;18103;52.246;8.052;2023-05-25T07:36:28;101531.47;;;12.56;77.87
31483;BME280;18103;52.246;8.052;2023-05-25T07:38:53;101543.47;;;12.62;76.57
31483;BME280;18103;52.246;8.052;2023-05-25T07:41:21;101544.09;;;12.65;76.88
31483;BME280;18103;52.246;8.052;2023-05-25T07:43:48;101544.75;;;12.69;76.15
31483;BME280;18103;52.246;8.052;2023-05-25T07:46:16;101547.81;;;12.76;76.28
31483;BME280;18103;52.246;8.052;2023-05-25T07:48:41;101543.66;;;12.72;76.69
31483;BME280;18103;52.246;8.052;2023-05-25T07:51:07;101534.25;;;12.80;75.93
31483;BME280;18103;52.246;8.052;2023-05-25T07:53:32;101541.13;;;12.70;75.78
31483;BME280;18103;52.246;8.052;2023-05-25T07:55:58;101543.91;;;12.94;75.84
31483;BME280;18103;52.246;8.052;2023-05-25T07:58:26;101542.53;;;13.01;76.17
31483;BME280;18103;52.246;8.052;2023-05-25T08:00:51;101548.03;;;12.98;75.56
31483;BME280;18103;52.246;8.052;2023-05-25T08:03:16;101556.22;;;13.08;75.33
31483;BME280;18103;52.246;8.052;2023-05-25T08:05:45;101561.06;;;13.14;74.13
31483;BME280;18103;52.246;8.052;2023-05-25T08:08:11;101558.53;;;13.00;75.44
31483;BME280;18103;52.246;8.052;2023-05-25T08:10:40;101562.25;;;13.10;75.05
31483;BME280;18103;52.246;8.052;2023-05-25T08:13:06;101561.72;;;13.18;75.01
31483;BME280;18103;52.246;8.052;2023-05-25T08:15:31;101564.47;;;13.16;75.34
31483;BME280;18103;52.246;8.052;2023-05-25T08:17:57;101566.47;;;13.13;75.56
31483;BME280;18103;52.246;8.052;2023-05-25T08:20:22;101567.00;;;13.05;75.82
31483;BME280;18103;52.246;8.052;2023-05-25T08:22:50;101562.00;;;13.13;75.29
31483;BME280;18103;52.246;8.052;2023-05-25T08:25:20;101567.88;;;13.06;75.27
31483;BME280;18103;52.246;8.052;2023-05-25T08:27:46;101567.22;;;13.02;75.24
31483;BME280;18103;52.246;8.052;2023-05-25T08:30:12;101558.75;;;13.10;74.96
31483;BME280;18103;52.246;8.052;2023-05-25T08:32:40;101566.81;;;13.08;75.60
31483;BME280;18103;52.246;8.052;2023-05-25T08:35:08;101569.66;;;13.18;74.76
31483;BME280;18103;52.246;8.052;2023-05-25T08:37:38;101572.63;;;13.26;75.18
31483;BME280;18103;52.246;8.052;2023-05-25T08:40:06;101575.16;;;13.15;75.25
31483;BME280;18103;52.246;8.052;2023-05-25T08:42:34;101575.28;;;13.13;74.95
31483;BME280;18103;52.246;8.052;2023-05-25T08:44:59;101581.31;;;13.15;74.49
31483;BME280;18103;52.246;8.052;2023-05-25T08:47:30;101574.19;;;13.29;73.85
31483;BME280;18103;52.246;8.052;2023-05-25T08:49:59;101573.16;;;13.18;74.03
31483;BME280;18103;52.246;8.052;2023-05-25T08:52:27;101575.19;;;13.28;73.89
31483;BME280;18103;52.246;8.052;2023-05-25T08:54:56;101569.44;;;13.34;74.04
31483;BME280;18103;52.246;8.052;2023-05-25T09:00:33;101581.31;;;13.41;74.03
31483;BME280;18103;52.246;8.052;2023-05-25T09:03:10;101582.19;;;13.42;73.79
31483;BME280;18103;52.246;8.052;2023-05-25T09:05:37;101581.97;;;13.45;72.93
31483;BME280;18103;52.246;8.052;2023-05-25T09:08:07;101583.25;;;13.39;73.33
31483;BME280;18103;52.246;8.052;2023-05-25T09:10:36;101577.28;;;13.48;73.10
31483;BME280;18103;52.246;8.052;2023-05-25T09:13:02;101590.22;;;13.40;73.77
31483;BME280;18103;52.246;8.052;2023-05-25T09:15:31;101587.28;;;13.45;73.83
31483;BME280;18103;52.246;8.052;2023-05-25T09:17:57;101583.22;;;13.52;73.31
31483;BME280;18103;52.246;8.052;2023-05-25T09:20:25;101592.31;;;13.61;73.32
31483;BME280;18103;52.246;8.052;2023-05-25T09:22:58;101584.81;;;13.55;73.30
31483;BME280;18103;52.246;8.052;2023-05-25T09:25:25;101593.09;;;13.50;73.11
31483;BME280;18103;52.246;8.052;2023-05-25T09:27:56;101592.56;;;13.58;73.77
31483;BME280;18103;52.246;8.052;2023-05-25T09:30:25;101594.91;;;13.49;73.08
31483;BME280;18103;52.246;8.052;2023-05-25T09:32:51;101597.53;;;13.49;72.57
31483;BME280;18103;52.246;8.052;2023-05-25T09:35:19;101603.63;;;13.51;73.23
31483;BME280;18103;52.246;8.052;2023-05-25T09:37:47;101606.84;;;13.68;72.56
31483;BME280;18103;52.246;8.052;2023-05-25T09:40:13;101610.06;;;13.60;73.17
31483;BME280;18103;52.246;8.052;2023-05-25T09:42:39;101610.59;;;13.65;72.81
31483;BME280;18103;52.246;8.052;2023-05-25T09:45:05;101600.78;;;13.79;71.77
31483;BME280;18103;52.246;8.052;2023-05-25T09:47:31;101604.44;;;13.89;71.54
31483;BME280;18103;52.246;8.052;2023-05-25T09:49:57;101598.34;;;13.76;71.03
31483;BME280;18103;52.246;8.052;2023-05-25T09:52:22;101605.19;;;13.91;71.19
31483;BME280;18103;52.246;8.052;2023-05-25T09:54:51;101596.28;;;13.92;71.48
31483;BME280;18103;52.246;8.052;2023-05-25T09:57:20;101602.63;;;14.02;72.16
31483;BME280;18103;52.246;8.052;2023-05-25T09:59:48;101609.22;;;14.21;71.34
31483;BME280;18103;52.246;8.052;2023-05-25T10:02:14;101609.28;;;14.32;71.40
31483;BME280;18103;52.246;8.052;2023-05-25T10:04:40;101602.56;;;14.15;70.89
31483;BME280;18103;52.246;8.052;2023-05-25T10:07:06;101601.53;;;14.29;70.76
31483;BME280;18103;52.246;8.052;2023-05-25T10:09:38;101612.91;;;14.31;71.21
31483;BME280;18103;52.246;8.052;2023-05-25T10:12:10;101610.44;;;14.41;71.22
31483;BME280;18103;52.246;8.052;2023-05-25T10:14:39;101612.97;;;14.43;71.29
31483;BME280;18103;52.246;8.052;2023-05-25T10:17:05;101616.97;;;14.48;71.12
31483;BME280;18103;52.246;8.052;2023-05-25T10:19:39;101608.75;;;14.51;70.48
31483;BME280;18103;52.246;8.052;2023-05-25T10:22:19;101606.69;;;14.68;70.66
31483;BME280;18103;52.246;8.052;2023-05-25T10:27:40;101608.78;;;14.87;69.93
31483;BME280;18103;52.246;8.052;2023-05-25T10:30:07;101609.59;;;14.76;69.59
31483;BME280;18103;52.246;8.052;2023-05-25T10:32:35;101604.34;;;14.99;68.95
31483;BME280;18103;52.246;8.052;2023-05-25T10:35:02;101605.28;;;14.86;69.18
31483;BME280;18103;52.246;8.052;2023-05-25T10:37:32;101613.50;;;14.83;68.18
31483;BME280;18103;52.246;8.052;2023-05-25T10:40:00;101616.75;;;14.87;68.05
31483;BME280;18103;52.246;8.052;2023-05-25T10:42:29;101619.06;;;14.92;69.19
31483;BME280;18103;52.246;8.052;2023-05-25T10:44:58;101624.88;;;15.08;68.74
31483;BME280;18103;52.246;8.052;2023-05-25T10:47:28;101620.06;;;15.02;68.20
31483;BME280;18103;52.246;8.052;2023-05-25T10:49:58;101621.03;;;15.12;68.37
31483;BME280;18103;52.246;8.052;2023-05-25T10:52:26;101624.44;;;15.14;67.83
31483;BME280;18103;52.246;8.052;2023-05-25T10:54:59;101616.22;;;15.29;67.83
31483;BME280;18103;52.246;8.052;2023-05-25T10:57:32;101613.44;;;15.42;67.07
31483;BME280;18103;52.246;8.052;2023-05-25T11:00:06;101612.59;;;15.52;65.96
31483;BME280;18103;52.246;8.052;2023-05-25T11:02:52;101607.53;;;15.49;65.32
31483;BME280;18103;52.246;8.052;2023-05-25T11:07:57;101606.94;;;16.23;64.45
31483;BME280;18103;52.246;8.052;2023-05-25T11:18:37;101595.53;;;16.33;63.91
31483;BME280;18103;52.246;8.052;2023-05-25T11:21:16;101599.41;;;16.29;63.23
31483;BME280;18103;52.246;8.052;2023-05-25T11:24:15;101604.13;;;16.25;63.91
31483;BME280;18103;52.246;8.052;2023-05-25T11:29:19;101600.59;;;16.36;64.85
31483;BME280;18103;52.246;8.052;2023-05-25T11:31:51;101596.75;;;16.29;65.11
31483;BME280;18103;52.246;8.052;2023-05-25T11:34:18;101592.09;;;16.63;64.25
31483;BME280;18103;52.246;8.052;2023-05-25T11:36:46;101586.44;;;16.77;62.68
31483;BME280;18103;52.246;8.052;2023-05-25T11:39:15;101583.75;;;16.89;61.73
31483;BME280;18103;52.246;8.052;2023-05-25T11:41:50;101593.38;;;16.69;62.35
31483;BME280;18103;52.246;8.052;2023-05-25T11:44:26;101586.75;;;16.63;61.75
31483;BME280;18103;52.246;8.052;2023-05-25T11:46:53;101584.75;;;16.55;62.55
31483;BME280;18103;52.246;8.052;2023-05-25T11:49:22;101585.84;;;16.74;63.34
31483;BME280;18103;52.246;8.052;2023-05-25T11:51:49;101573.56;;;16.83;63.18
31483;BME280;18103;52.246;8.052;2023-05-25T11:54:24;101574.50;;;16.72;62.64
31483;BME280;18103;52.246;8.052;2023-05-25T11:56:53;101575.25;;;16.84;62.72
31483;BME280;18103;52.246;8.052;2023-05-25T11:59:22;101566.41;;;16.83;62.44
31483;BME280;18103;52.246;8.052;2023-05-25T12:02:14;101565.56;;;17.04;62.30
31483;BME280;18103;52.246;8.052;2023-05-25T12:04:39;101556.22;;;17.19;60.39
31483;BME280;18103;52.246;8.052;2023-05-25T12:07:06;101554.41;;;17.60;59.28
31483;BME280;18103;52.246;8.052;2023-05-25T12:09:34;101553.63;;;18.09;59.21
31483;BME280;18103;52.246;8.052;2023-05-25T12:12:02;101555.28;;;17.90;59.71
31483;BME280;18103;52.246;8.052;2023-05-25T12:14:28;101552.38;;;18.03;59.07
31483;BME280;18103;52.246;8.052;2023-05-25T12:16:54;101550.72;;;18.02;59.26
31483;BME280;18103;52.246;8.052;2023-05-25T12:19:20;101550.97;;;18.09;58.02
31483;BME280;18103;52.246;8.052;2023-05-25T12:21:49;101550.34;;;17.76;60.84
31483;BME280;18103;52.246;8.052;2023-05-25T12:24:16;101542.53;;;17.34;59.52
31483;BME280;18103;52.246;8.052;2023-05-25T12:26:52;101544.66;;;17.50;59.01
31483;BME280;18103;52.246;8.052;2023-05-25T12:29:26;101540.00;;;17.32;60.09
31483;BME280;18103;52.246;8.052;2023-05-25T12:32:01;101548.31;;;17.49;60.63
31483;BME280;18103;52.246;8.052;2023-05-25T12:34:28;101547.31;;;17.40;59.42
31483;BME280;18103;52.246;8.052;2023-05-25T12:36:56;101540.00;;;17.32;60.54
31483;BME280;18103;52.246;8.052;2023-05-25T12:41:59;101543.41;;;17.44;60.23
31483;BME280;18103;52.246;8.052;2023-05-25T12:46:52;101532.25;;;17.89;59.81
31483;BME280;18103;52.246;8.052;2023-05-25T12:51:46;101537.34;;;18.41;58.09
31483;BME280;18103;52.246;8.052;2023-05-25T12:54:12;101540.56;;;18.35;56.67
31483;BME280;18103;52.246;8.052;2023-05-25T12:56:56;101544.66;;;18.10;58.07
31483;BME280;18103;52.246;8.052;2023-05-25T12:59:21;101547.91;;;18.13;58.75
31483;BME280;18103;52.246;8.052;2023-05-25T13:01:47;101536.59;;;17.90;56.43
31483;BME280;18103;52.246;8.052;2023-05-25T13:04:15;101532.25;;;18.38;56.63
31483;BME280;18103;52.246;8.052;2023-05-25T13:06:40;101535.47;;;18.61;55.53
31483;BME280;18103;52.246;8.052;2023-05-25T13:09:05;101534.78;;;18.59;55.04
31483;BME280;18103;52.246;8.052;2023-05-25T13:11:31;101528.81;;;18.75;53.28
31483;BME280;18103;52.246;8.052;2023-05-25T13:13:56;101527.78;;;19.06;54.06
31483;BME280;18103;52.246;8.052;2023-05-25T13:16:22;101527.69;;;18.78;55.61
31483;BME280;18103;52.246;8.052;2023-05-25T13:18:49;101527.97;;;18.94;54.97
31483;BME280;18103;52.246;8.052;2023-05-25T13:21:15;101535.25;;;19.02;55.52
31483;BME280;18103;52.246;8.052;2023-05-25T13:23:40;101525.47;;;18.63;56.22
31483;BME280;18103;52.246;8.052;2023-05-25T13:26:06;101522.72;;;18.36;54.27
31483;BME280;18103;52.246;8.052;2023-05-25T13:28:31;101527.88;;;18.57;55.23
31483;BME280;18103;52.246;8.052;2023-05-25T13:30:59;101522.63;;;18.75;54.61